Time;durP1;ratioP1;P1;durP2;ratioP2;P2;SDS_P1;SDS_P2;PMS_P1;PMS_P2;Temp;Humidity;BMP_temperature;BMP_pressure;BME280_temperature;BME280_humidity;BME280_pressure;Samples;Min_cycle;Max_cycle;Signal;HPM_P1;HPM_P2
2021/12/29 00:02:20;;;;;;;6.93;4.38;;;;;;;-21.00;58.15;100752.47;5056922;28;20048;-82
2021/12/29 00:04:47;;;;;;;8.02;4.65;;;;;;;-21.02;58.13;100751.50;5073413;28;20051;-84
2021/12/29 00:07:13;;;;;;;3.80;3.47;;;;;;;-21.06;58.75;100749.50;5073341;28;20492;-83
2021/12/29 00:09:40;;;;;;;9.77;5.00;;;;;;;-21.13;58.75;100743.16;5028098;28;20060;-83
2021/12/29 00:12:07;;;;;;;7.03;4.82;;;;;;;-21.15;58.72;100734.53;5056660;28;20045;-83
2021/12/29 00:14:34;;;;;;;7.80;4.57;;;;;;;-21.13;58.47;100749.91;5056942;28;20094;-83
2021/12/29 00:17:00;;;;;;;6.93;4.30;;;;;;;-21.16;58.86;100757.31;5056687;28;20040;-83
2021/12/29 00:19:26;;;;;;;8.00;4.65;;;;;;;-21.20;59.04;100753.66;5056484;28;20040;-82
2021/12/29 00:21:52;;;;;;;5.57;3.58;;;;;;;-21.22;58.99;100751.78;5073083;28;20119;-81
2021/12/29 00:24:19;;;;;;;7.22;4.40;;;;;;;-21.30;59.12;100742.78;5056179;28;20048;-82
2021/12/29 00:26:45;;;;;;;7.32;5.60;;;;;;;-21.31;58.91;100767.28;5072382;28;20048;-83
2021/12/29 00:29:10;;;;;;;6.38;4.30;;;;;;;-21.26;58.88;100771.00;5057920;28;20117;-82
2021/12/29 00:31:38;;;;;;;11.20;6.30;;;;;;;-21.32;58.85;100784.97;5025540;28;20569;-83
2021/12/29 00:34:43;;;;;;;2.75;2.55;;;;;;;-21.46;58.94;100779.84;4983241;28;20042;-82
2021/12/29 00:37:29;;;;;;;4.18;2.97;;;;;;;-21.46;58.90;100776.41;4937805;28;20038;-82
2021/12/29 00:40:14;;;;;;;8.45;3.63;;;;;;;-21.41;59.05;100791.19;5048503;28;20052;-83
2021/12/29 00:43:09;;;;;;;7.57;3.78;;;;;;;-21.28;58.94;100794.53;5075603;28;20041;-82
2021/12/29 00:45:58;;;;;;;9.57;4.13;;;;;;;-21.28;59.00;100786.91;5044778;28;20047;-82
2021/12/29 00:48:34;;;;;;;3.13;2.97;;;;;;;-21.19;58.79;100797.72;5040346;28;20044;-82
2021/12/29 00:51:00;;;;;;;6.93;4.85;;;;;;;-21.22;58.98;100788.22;5043874;28;20044;-83
2021/12/29 00:53:26;;;;;;;9.90;5.28;;;;;;;-21.16;58.83;100792.84;5040017;28;20048;-81
2021/12/29 00:55:52;;;;;;;7.97;5.32;;;;;;;-21.32;58.94;100795.13;5055751;28;20113;-82
2021/12/29 00:58:18;;;;;;;2.22;2.13;;;;;;;-21.21;59.33;100801.78;5055847;28;20076;-82
2021/12/29 01:00:44;;;;;;;11.05;4.45;;;;;;;-21.16;59.66;100797.94;5055853;28;20041;-82
2021/12/29 01:03:10;;;;;;;6.97;4.95;;;;;;;-21.00;59.30;100799.84;5039236;28;20582;-83
2021/12/29 01:05:36;;;;;;;10.95;5.50;;;;;;;-21.01;59.51;100793.91;5055546;28;20050;-81
2021/12/29 01:08:03;;;;;;;9.02;5.32;;;;;;;-20.92;59.74;100786.00;5072196;28;20040;-83
2021/12/29 01:10:29;;;;;;;11.93;5.93;;;;;;;-20.92;59.62;100784.34;5055884;28;20040;-82
2021/12/29 01:12:58;;;;;;;8.85;5.00;;;;;;;-20.72;59.75;100802.59;5072989;28;20534;-82
2021/12/29 01:15:31;;;;;;;6.30;4.40;;;;;;;-20.62;60.12;100798.25;5057587;28;20041;-82
2021/12/29 01:17:57;;;;;;;7.65;5.43;;;;;;;-20.52;59.71;100809.91;5040324;28;20047;-82
2021/12/29 01:20:24;;;;;;;7.35;5.35;;;;;;;-20.54;59.43;100796.19;5025078;28;20037;-83
2021/12/29 01:22:50;;;;;;;6.30;3.88;;;;;;;-20.49;59.60;100805.03;5057522;28;20415;-82
2021/12/29 01:25:16;;;;;;;8.65;4.43;;;;;;;-20.47;59.33;100808.50;5024878;28;20076;-83
2021/12/29 01:27:42;;;;;;;6.63;5.28;;;;;;;-20.40;59.29;100807.25;5041214;28;20086;-82
2021/12/29 01:30:10;;;;;;;4.25;3.83;;;;;;;-20.35;59.50;100809.31;5038669;28;20071;-83
2021/12/29 01:32:37;;;;;;;12.70;6.15;;;;;;;-20.27;59.44;100804.72;5045630;28;20060;-82
2021/12/29 01:35:04;;;;;;;6.38;4.43;;;;;;;-20.22;59.03;100807.59;5062441;28;20021;-83
2021/12/29 01:37:30;;;;;;;9.90;6.63;;;;;;;-20.23;59.09;100805.81;5046437;28;20037;-83
2021/12/29 01:39:56;;;;;;;18.52;6.47;;;;;;;-20.24;58.49;100819.31;5046053;28;20040;-82
2021/12/29 01:42:22;;;;;;;10.20;5.72;;;;;;;-20.35;58.35;100823.69;5079060;28;20052;-81
2021/12/29 01:44:48;;;;;;;8.48;5.65;;;;;;;-20.56;58.40;100825.75;5084810;28;20037;-84
2021/12/29 01:47:32;;;;;;;8.27;5.60;;;;;;;-20.63;58.84;100804.09;5073684;28;20041;-82
2021/12/29 01:50:00;;;;;;;5.40;4.38;;;;;;;-20.46;59.27;100820.44;5024999;28;20036;-82
2021/12/29 01:52:29;;;;;;;4.40;3.77;;;;;;;-20.41;59.13;100823.31;5074263;28;20048;-81
2021/12/29 01:54:56;;;;;;;4.30;2.72;;;;;;;-20.54;59.00;100826.72;5039675;28;20052;-82
2021/12/29 01:57:21;;;;;;;7.88;7.13;;;;;;;-20.59;58.69;100824.66;5072154;28;20059;-82
2021/12/29 01:59:47;;;;;;;11.38;5.43;;;;;;;-20.61;58.82;100837.25;5039612;28;20043;-81
2021/12/29 02:02:14;;;;;;;6.15;5.05;;;;;;;-20.74;59.10;100839.75;5022414;28;20048;-81
2021/12/29 02:04:44;;;;;;;11.50;6.57;;;;;;;-20.74;59.21;100835.53;5072318;28;20040;-81
2021/12/29 02:07:10;;;;;;;6.45;5.45;;;;;;;-20.60;59.76;100849.19;5039123;28;20045;-82
2021/12/29 02:09:36;;;;;;;7.07;5.28;;;;;;;-20.58;59.82;100834.91;5054877;28;20063;-82
2021/12/29 02:12:03;;;;;;;4.10;3.58;;;;;;;-20.76;59.44;100859.06;5038603;28;20044;-83
2021/12/29 02:14:29;;;;;;;13.63;6.88;;;;;;;-20.76;59.90;100861.63;5055108;28;20041;-81
2021/12/29 02:16:55;;;;;;;9.68;4.97;;;;;;;-20.65;59.78;100868.31;5071424;28;20048;-82
2021/12/29 02:19:23;;;;;;;4.03;3.55;;;;;;;-20.52;59.91;100863.31;5071308;28;20048;-82
2021/12/29 02:22:04;;;;;;;4.10;3.65;;;;;;;-20.43;59.72;100861.31;5055374;28;20091;-84
2021/12/29 02:24:54;;;;;;;5.75;4.95;;;;;;;-20.52;59.48;100863.31;5027196;28;20082;-83
2021/12/29 02:27:19;;;;;;;6.60;4.85;;;;;;;-20.52;59.69;100855.66;5045048;28;20056;-82
2021/12/29 02:29:47;;;;;;;6.43;4.10;;;;;;;-20.45;59.70;100875.63;5039472;28;20098;-83
2021/12/29 02:32:14;;;;;;;3.65;2.63;;;;;;;-20.43;59.70;100870.63;5038528;28;20454;-83
2021/12/29 02:34:40;;;;;;;5.07;4.43;;;;;;;-20.53;59.83;100861.53;5022915;28;20052;-83
2021/12/29 02:37:07;;;;;;;9.82;5.75;;;;;;;-20.40;60.15;100875.91;5024742;28;20043;-83
2021/12/29 02:39:36;;;;;;;9.73;5.40;;;;;;;-20.44;59.96;100877.38;5058387;28;20399;-83
2021/12/29 02:42:05;;;;;;;17.70;7.28;;;;;;;-20.31;60.05;100893.44;5026149;28;20076;-84
2021/12/29 02:44:38;;;;;;;6.35;4.82;;;;;;;-20.30;59.97;100879.97;5025754;28;20537;-84
2021/12/29 02:47:04;;;;;;;5.72;4.60;;;;;;;-20.29;60.00;100879.19;5074969;28;20086;-83
2021/12/29 02:49:30;;;;;;;14.70;4.72;;;;;;;-20.17;60.51;100893.59;5041593;28;20510;-83
2021/12/29 02:51:56;;;;;;;12.63;5.63;;;;;;;-20.11;60.17;100888.94;5041413;28;20515;-83
2021/12/29 02:54:22;;;;;;;4.85;4.18;;;;;;;-19.99;60.19;100893.94;5041228;28;20135;-82
2021/12/29 02:56:54;;;;;;;14.65;5.45;;;;;;;-19.98;60.43;100890.59;5057873;28;20491;-83
2021/12/29 02:59:23;;;;;;;30.95;5.32;;;;;;;-19.97;60.04;100900.00;5062981;28;20133;-82
2021/12/29 03:01:51;;;;;;;13.40;5.40;;;;;;;-19.99;60.13;100887.97;5037925;28;20037;-84
2021/12/29 03:04:17;;;;;;;7.00;4.45;;;;;;;-20.00;59.87;100894.72;5068453;28;20596;-84
2021/12/29 03:06:43;;;;;;;10.73;5.57;;;;;;;-19.96;60.07;100893.28;5065309;28;20045;-83
2021/12/29 03:09:10;;;;;;;9.65;5.55;;;;;;;-20.03;59.81;100894.50;5077218;28;20090;-83
2021/12/29 03:11:36;;;;;;;3.42;3.13;;;;;;;-19.98;60.18;100899.91;5042314;28;20040;-83
2021/12/29 03:14:02;;;;;;;8.98;5.53;;;;;;;-19.94;59.82;100901.88;5057796;28;20066;-82
2021/12/29 03:16:28;;;;;;;6.78;5.32;;;;;;;-19.95;59.93;100906.06;5041532;28;20098;-82
2021/12/29 03:18:54;;;;;;;6.50;5.22;;;;;;;-19.90;60.04;100909.78;5040666;28;20078;-80
2021/12/29 03:21:20;;;;;;;11.52;5.72;;;;;;;-19.88;60.11;100900.63;5057450;28;20040;-80
2021/12/29 03:23:48;;;;;;;8.95;5.18;;;;;;;-19.95;59.88;100890.81;5057327;28;20052;-80
2021/12/29 03:26:17;;;;;;;7.88;4.32;;;;;;;-19.89;59.56;100893.78;5058550;28;20070;-84
2021/12/29 03:28:43;;;;;;;6.03;3.40;;;;;;;-19.87;59.87;100897.28;5024505;28;20044;-84
2021/12/29 03:31:14;;;;;;;12.73;5.57;;;;;;;-19.83;59.48;100897.50;5040903;28;20114;-84
2021/12/29 03:33:41;;;;;;;7.32;4.15;;;;;;;-19.79;59.59;100904.53;5057848;28;20119;-84
2021/12/29 03:36:07;;;;;;;6.75;4.20;;;;;;;-19.80;59.75;100903.66;5040863;28;20045;-83
2021/12/29 03:38:35;;;;;;;7.72;5.93;;;;;;;-19.74;59.91;100906.63;5057574;28;20050;-83
2021/12/29 03:41:02;;;;;;;15.45;7.07;;;;;;;-19.73;59.54;100887.13;5057440;28;20044;-83
2021/12/29 03:43:30;;;;;;;9.82;5.55;;;;;;;-19.55;59.77;100916.31;5040478;28;20131;-84
2021/12/29 03:45:56;;;;;;;11.80;6.38;;;;;;;-19.60;59.55;100910.00;5057564;28;20507;-83
2021/12/29 03:48:23;;;;;;;7.82;4.85;;;;;;;-19.69;59.54;100914.56;5041002;28;20055;-85
2021/12/29 03:50:49;;;;;;;7.90;6.38;;;;;;;-19.63;59.61;100920.94;5024053;28;20136;-84
2021/12/29 03:53:15;;;;;;;9.43;3.92;;;;;;;-19.59;59.69;100932.16;5056864;28;20072;-81
2021/12/29 03:55:42;;;;;;;15.82;6.55;;;;;;;-19.53;59.91;100932.53;5023443;28;20224;-82
2021/12/29 03:58:08;;;;;;;15.40;5.28;;;;;;;-19.49;60.26;100918.34;5073063;28;20044;-81
2021/12/29 04:00:35;;;;;;;2.22;2.10;;;;;;;-19.44;60.67;100927.16;5039670;28;20036;-81
2021/12/29 04:03:01;;;;;;;6.53;4.28;;;;;;;-19.50;60.46;100932.75;5026316;28;20492;-84
2021/12/29 04:05:27;;;;;;;5.07;3.85;;;;;;;-19.47;60.53;100948.22;5049152;28;20036;-81
2021/12/29 04:07:54;;;;;;;20.45;7.13;;;;;;;-19.49;60.42;100943.81;5056699;28;20052;-84
2021/12/29 04:10:20;;;;;;;4.82;4.43;;;;;;;-19.51;60.84;100953.91;5072965;28;20036;-82
2021/12/29 04:12:46;;;;;;;5.43;4.57;;;;;;;-19.46;60.88;100966.94;5072970;28;20495;-82
2021/12/29 04:15:13;;;;;;;10.05;5.72;;;;;;;-19.46;61.05;100972.91;5073104;28;20037;-81
2021/12/29 04:17:40;;;;;;;4.57;3.38;;;;;;;-19.46;61.47;100965.25;5039625;28;20076;-85
2021/12/29 04:22:56;;;;;;;11.38;4.72;;;;;;;-19.44;61.27;100958.63;5058720;28;20131;-85
2021/12/29 04:25:24;;;;;;;12.23;5.60;;;;;;;-19.34;61.59;100971.94;5023238;28;20045;-81
2021/12/29 04:27:53;;;;;;;10.27;6.47;;;;;;;-19.28;61.36;100975.78;5056303;28;20151;-79
2021/12/29 04:30:19;;;;;;;;;;;;;;;-19.22;61.70;100973.59;5039694;28;20117;-82
2021/12/29 04:32:45;;;;;;;12.85;6.25;;;;;;;-19.24;62.19;100987.03;5039121;28;19947;-84
2021/12/29 04:35:11;;;;;;;6.85;3.95;;;;;;;-19.18;61.93;100987.41;5055848;28;20047;-83
2021/12/29 04:37:37;;;;;;;28.42;8.73;;;;;;;-19.07;61.82;100986.44;5039356;28;20071;-84
2021/12/29 04:40:04;;;;;;;14.32;5.32;;;;;;;-18.98;61.53;100986.19;5023142;28;20050;-86
2021/12/29 04:42:30;;;;;;;10.88;5.95;;;;;;;-18.98;61.12;100981.06;5039039;28;20044;-81
2021/12/29 04:44:56;;;;;;;11.02;6.07;;;;;;;-18.99;61.80;100977.66;5055534;28;20079;-81
2021/12/29 04:47:28;;;;;;;9.63;5.30;;;;;;;-19.01;62.05;100976.66;5022301;28;20074;-80
2021/12/29 04:50:02;;;;;;;15.40;8.43;;;;;;;-18.92;62.28;100987.41;5041112;28;20145;-80
2021/12/29 04:52:30;;;;;;;14.95;7.68;;;;;;;-18.84;62.24;100975.16;5024587;28;20107;-82
2021/12/29 04:54:55;;;;;;;9.23;6.22;;;;;;;-18.78;61.64;100973.00;5055764;28;20181;-82
2021/12/29 04:57:22;;;;;;;12.38;7.57;;;;;;;-18.68;61.36;100987.19;5022368;28;20436;-82
2021/12/29 04:59:48;;;;;;;14.90;7.60;;;;;;;-18.64;61.56;100981.50;5005968;28;20070;-84
2021/12/29 05:02:14;;;;;;;19.88;7.82;;;;;;;-18.58;61.23;100976.75;5055572;28;20041;-84
2021/12/29 05:04:55;;;;;;;18.38;8.98;;;;;;;-18.54;60.96;100986.34;5022438;28;20051;-82
2021/12/29 05:10:06;;;;;;;17.00;7.72;;;;;;;-18.40;60.94;100984.66;5058456;28;20044;-83
2021/12/29 05:12:32;;;;;;;7.30;5.43;;;;;;;-18.23;60.98;100998.47;5055392;28;20530;-84
2021/12/29 05:14:58;;;;;;;18.83;8.20;;;;;;;-18.13;60.62;101005.88;5038897;28;20040;-84
2021/12/29 05:17:24;;;;;;;16.05;8.52;;;;;;;-18.10;60.81;101007.75;5055054;28;20047;-87
2021/12/29 05:19:50;;;;;;;15.27;7.63;;;;;;;-18.02;60.75;100999.75;5055327;28;20048;-85
2021/12/29 05:22:16;;;;;;;15.80;7.80;;;;;;;-17.95;60.48;101007.00;5038851;28;20131;-84
2021/12/29 05:24:42;;;;;;;12.95;7.07;;;;;;;-17.91;60.10;101016.59;5038722;28;20507;-82
2021/12/29 05:27:08;;;;;;;14.20;8.10;;;;;;;-17.95;60.07;101018.88;5039069;28;20384;-79
2021/12/29 05:29:34;;;;;;;16.63;6.97;;;;;;;-17.94;60.24;101011.34;5022293;28;20047;-78
2021/12/29 05:32:00;;;;;;;12.73;7.43;;;;;;;-17.82;60.98;101017.94;5054937;28;20056;-81
2021/12/29 05:34:27;;;;;;;14.52;6.90;;;;;;;-17.84;60.80;101009.31;5038528;28;20543;-79
2021/12/29 05:36:53;;;;;;;16.25;7.15;;;;;;;-17.70;60.66;101019.53;5071068;28;20047;-78
2021/12/29 05:39:20;;;;;;;24.67;8.00;;;;;;;-17.21;64.15;101031.75;5021593;28;20105;-89
2021/12/29 05:41:46;;;;;;;15.20;7.97;;;;;;;-17.41;60.25;101035.69;5039382;28;20414;-83
2021/12/29 05:44:11;;;;;;;21.73;7.10;;;;;;;-17.52;59.54;101029.97;5073101;28;20048;-85
2021/12/29 05:46:37;;;;;;;16.42;7.90;;;;;;;-17.59;58.88;101027.84;5021826;28;20072;-83
2021/12/29 05:49:04;;;;;;;25.77;7.20;;;;;;;-17.63;58.29;101033.56;5072652;28;20079;-79
2021/12/29 05:51:30;;;;;;;12.77;6.82;;;;;;;-17.64;58.15;101039.44;5054009;28;20049;-80
2021/12/29 05:53:56;;;;;;;12.32;6.43;;;;;;;-17.75;57.65;101033.75;5071766;28;20191;-81
2021/12/29 05:56:22;;;;;;;13.13;7.40;;;;;;;-17.65;58.09;101037.69;5022065;28;20044;-80
2021/12/29 05:58:47;;;;;;;7.70;4.68;;;;;;;-17.47;58.14;101038.78;5038776;28;20479;-86
2021/12/29 06:01:13;;;;;;;11.70;5.22;;;;;;;-17.46;57.42;101030.31;5038479;28;20140;-84
2021/12/29 06:03:39;;;;;;;10.93;6.07;;;;;;;-17.49;57.05;101030.13;5072657;28;20052;-83
2021/12/29 06:06:05;;;;;;;18.48;6.47;;;;;;;-17.62;56.94;101025.09;5037508;28;20821;-85
2021/12/29 06:08:32;;;;;;;9.02;6.05;;;;;;;-17.40;57.07;101043.47;5038436;28;20076;-86
2021/12/29 06:10:58;;;;;;;6.57;4.82;;;;;;;-17.31;56.95;101042.22;5024064;28;20048;-89
2021/12/29 06:13:24;;;;;;;9.85;5.53;;;;;;;-17.19;56.97;101040.38;5048797;28;20068;-86
2021/12/29 06:15:50;;;;;;;12.32;6.00;;;;;;;-17.14;56.28;101044.09;5050239;28;20080;-94
2021/12/29 06:18:16;;;;;;;5.00;4.35;;;;;;;-17.20;55.89;101048.84;5047187;28;20053;-88
2021/12/29 06:20:42;;;;;;;9.88;5.63;;;;;;;-17.31;55.82;101040.56;5075008;28;20071;-85
2021/12/29 06:23:12;;;;;;;7.00;4.82;;;;;;;-17.37;55.67;101034.19;5042953;28;20045;-81
2021/12/29 06:25:38;;;;;;;4.03;3.40;;;;;;;-17.42;55.91;101039.91;5042309;28;20048;-79
2021/12/29 06:28:04;;;;;;;17.33;6.90;;;;;;;-17.43;56.30;101044.94;5026372;28;20044;-78
2021/12/29 06:30:31;;;;;;;11.00;6.10;;;;;;;-17.33;56.62;101020.81;5041904;28;20410;-87
2021/12/29 06:32:57;;;;;;;5.97;4.38;;;;;;;-17.13;56.55;101039.88;5058536;28;20136;-87
2021/12/29 06:35:24;;;;;;;11.48;5.82;;;;;;;-17.13;55.91;101043.28;5042390;28;20463;-87
2021/12/29 06:37:50;;;;;;;12.77;7.70;;;;;;;-17.09;55.62;101050.34;5076061;28;20044;-82
2021/12/29 06:40:16;;;;;;;11.65;5.53;;;;;;;-17.16;55.31;101061.00;5079212;28;20140;-82
2021/12/29 06:42:42;;;;;;;11.23;6.10;;;;;;;-17.19;55.44;101045.50;5028168;28;20118;-83
2021/12/29 06:45:08;;;;;;;19.17;6.13;;;;;;;-17.00;55.99;101043.19;5058208;28;20123;-83
2021/12/29 06:47:35;;;;;;;14.05;5.40;;;;;;;-16.99;55.22;101039.88;5025657;28;20040;-89
2021/12/29 06:50:03;;;;;;;3.80;3.17;;;;;;;-16.91;55.59;101053.09;5041556;28;20487;-82
2021/12/29 06:52:29;;;;;;;12.88;7.05;;;;;;;-17.02;55.05;101049.91;5042570;28;20052;-80
2021/12/29 06:54:55;;;;;;;8.07;6.65;;;;;;;-17.26;54.98;101053.59;5062637;28;20044;-81
2021/12/29 06:57:21;;;;;;;6.97;4.43;;;;;;;-17.20;55.33;101065.06;5048804;28;20044;-83
2021/12/29 06:59:47;;;;;;;9.25;5.15;;;;;;;-17.30;55.38;101054.22;5030966;28;20047;-83
2021/12/29 07:02:16;;;;;;;14.40;5.75;;;;;;;-17.50;56.01;101037.72;5023768;28;20041;-80
2021/12/29 07:04:43;;;;;;;14.68;7.47;;;;;;;-17.33;55.62;101043.84;5042526;28;20067;-80
2021/12/29 07:07:09;;;;;;;5.38;4.43;;;;;;;-17.21;55.89;101047.09;5056852;28;20048;-81
2021/12/29 07:09:35;;;;;;;17.92;7.63;;;;;;;-17.05;55.94;101042.06;5058398;28;20052;-78
2021/12/29 07:12:01;;;;;;;13.20;7.63;;;;;;;-16.97;54.98;101038.25;5074508;28;20495;-82
2021/12/29 07:14:27;;;;;;;14.27;8.02;;;;;;;-16.73;55.51;101043.03;5011771;28;20036;-89
2021/12/29 07:16:53;;;;;;;7.00;5.63;;;;;;;-16.73;54.46;101043.84;5073129;28;20044;-83
2021/12/29 07:19:20;;;;;;;10.05;6.38;;;;;;;-16.70;54.57;101049.13;5089591;28;20083;-85
2021/12/29 07:21:46;;;;;;;9.18;5.70;;;;;;;-16.57;54.89;101049.84;5054659;28;20111;-85
2021/12/29 07:24:12;;;;;;;12.23;6.70;;;;;;;-16.37;56.11;101045.81;5036597;28;20044;-90
2021/12/29 07:26:38;;;;;;;12.82;6.90;;;;;;;-16.21;54.39;101040.72;5063736;28;20151;-91
2021/12/29 07:29:04;;;;;;;10.00;5.90;;;;;;;-16.51;53.24;101035.72;5057056;28;20465;-80
2021/12/29 07:31:31;;;;;;;11.52;6.18;;;;;;;-16.52;53.50;101040.72;5040414;28;20057;-84
2021/12/29 07:33:58;;;;;;;14.20;4.97;;;;;;;-16.66;53.95;101019.47;5055014;28;20052;-85
2021/12/29 07:36:25;;;;;;;20.10;7.22;;;;;;;-16.53;54.69;101021.94;5032742;28;20032;-87
2021/12/29 07:38:52;;;;;;;12.48;6.13;;;;;;;-16.34;54.33;101039.19;5002702;28;20049;-83
2021/12/29 07:41:21;;;;;;;12.70;6.60;;;;;;;-16.51;53.84;101039.91;5019055;28;20053;-82
2021/12/29 07:43:51;;;;;;;9.02;6.15;;;;;;;-16.31;53.78;101041.03;5001804;28;20080;-88
2021/12/29 07:46:17;;;;;;;;;;;;;;;-16.10;53.27;101043.84;5040512;28;20045;-82
2021/12/29 07:48:52;;;;;;;9.50;4.70;;;;;;;-16.16;53.13;101049.53;4989861;28;19921;-82
2021/12/29 07:51:22;;;;;;;6.53;4.07;;;;;;;-16.19;53.18;101049.38;5007715;28;20156;-87
2021/12/29 07:53:53;;;;;;;9.18;4.70;;;;;;;-16.38;52.93;101027.00;4994601;28;20058;-85
2021/12/29 07:56:20;;;;;;;50.55;18.15;;;;;;;-16.11;53.79;101022.50;5003484;28;20042;-87
2021/12/29 07:58:46;;;;;;;9.68;6.03;;;;;;;-15.66;53.24;101048.78;4994602;28;20050;-79
2021/12/29 08:01:14;;;;;;;16.25;6.45;;;;;;;-15.81;52.75;101019.78;4954551;28;20050;-86
2021/12/29 08:03:40;;;;;;;9.18;4.70;;;;;;;-16.00;52.36;101057.25;4950978;28;20109;-78
2021/12/29 08:06:07;;;;;;;7.65;4.65;;;;;;;-16.11;52.92;101050.66;4962532;28;20085;-83
2021/12/29 08:09:17;;;;;;;;;;;;;;;;;;;;;
2021/12/29 08:12:13;;;;;;;7.68;4.45;;;;;;;-15.77;53.02;101042.19;4993581;28;20140;-85
2021/12/29 08:14:45;;;;;;;19.67;7.65;;;;;;;-15.69;52.26;101010.16;5007925;28;20049;-85
2021/12/29 08:17:13;;;;;;;10.57;6.20;;;;;;;-15.41;52.17;101034.63;4999465;28;20046;-87
2021/12/29 08:19:43;;;;;;;21.88;12.57;;;;;;;-15.25;51.61;101014.97;5000346;28;20076;-85
2021/12/29 08:22:12;;;;;;;7.88;5.13;;;;;;;-15.21;50.86;101013.44;4990846;28;20110;-84
2021/12/29 08:24:42;;;;;;;30.73;5.88;;;;;;;-15.22;50.58;101020.25;4972704;28;20675;-86
2021/12/29 08:27:10;;;;;;;9.23;5.25;;;;;;;-15.11;51.08;101036.19;5007381;28;20056;-86
2021/12/29 08:29:38;;;;;;;8.82;5.88;;;;;;;-15.19;50.68;101032.34;4973235;28;20085;-86
2021/12/29 08:32:05;;;;;;;10.20;4.97;;;;;;;-15.01;50.92;101022.97;5033975;28;20136;-87
2021/12/29 08:34:32;;;;;;;9.30;3.45;;;;;;;-14.86;50.35;101029.66;5024804;28;20496;-86
2021/12/29 08:36:58;;;;;;;11.88;5.40;;;;;;;-14.84;50.45;101028.94;5002913;28;20060;-86
2021/12/29 08:39:26;;;;;;;6.95;5.03;;;;;;;-14.79;49.96;101024.03;5023030;28;20499;-84
2021/12/29 08:41:53;;;;;;;12.02;6.15;;;;;;;-14.67;50.43;101034.00;5010217;28;20048;-82
2021/12/29 08:44:20;;;;;;;9.52;4.00;;;;;;;-14.56;49.99;101036.28;5008462;28;20072;-84
2021/12/29 08:46:47;;;;;;;15.13;5.60;;;;;;;-14.54;50.14;101024.41;5028001;28;20591;-89
2021/12/29 08:49:58;;;;;;;9.45;4.50;;;;;;;-14.59;49.33;101027.53;5034017;28;20054;-88
2021/12/29 08:52:40;;;;;;;;;;;;;;;;;;;;;
2021/12/29 08:55:17;;;;;;;8.98;5.72;;;;;;;-14.42;49.75;101028.31;5090911;28;20506;-91
2021/12/29 08:58:42;;;;;;;10.32;6.47;;;;;;;-14.52;49.66;101006.50;5074874;28;20047;-87
2021/12/29 09:01:40;;;;;;;9.75;5.38;;;;;;;-14.73;49.52;100996.09;5073499;28;20036;-84
2021/12/29 09:04:50;;;;;;;;;;;;;;;;;;;;;
2021/12/29 09:10:42;;;;;;;;;;;;;;;;;;;;;
2021/12/29 09:14:03;;;;;;;;;;;;;;;;;;;;;
2021/12/29 09:16:35;;;;;;;9.73;5.15;;;;;;;-14.42;49.98;101000.06;4987075;28;20045;-91
2021/12/29 09:19:11;;;;;;;9.10;4.78;;;;;;;-14.37;49.99;101003.72;4947897;28;20038;-89
2021/12/29 09:22:02;;;;;;;8.52;5.10;;;;;;;-14.12;49.57;101042.59;4968952;28;20049;-90
2021/12/29 09:25:16;;;;;;;3.33;3.00;;;;;;;-14.12;49.34;101034.88;4903852;29;20058;-89
2021/12/29 09:31:54;;;;;;;7.47;4.53;;;;;;;-14.36;49.53;101026.06;4927848;29;20100;-89
2021/12/29 09:35:23;;;;;;;;;;;;;;;;;;;;;
2021/12/29 09:37:56;;;;;;;5.93;3.88;;;;;;;-14.24;50.05;101019.78;4904980;29;20076;-89
2021/12/29 09:40:32;;;;;;;9.32;5.15;;;;;;;-14.43;49.30;101021.44;4918652;29;20052;-85
2021/12/29 09:44:02;;;;;;;8.10;4.13;;;;;;;-14.22;50.54;101050.66;4905516;29;20056;-86
2021/12/29 09:46:29;;;;;;;4.28;3.42;;;;;;;-14.49;51.96;101030.59;4886134;29;20333;-89
2021/12/29 09:48:58;;;;;;;5.07;3.53;;;;;;;-14.61;50.19;101035.19;4922533;29;20065;-87
2021/12/29 09:51:24;;;;;;;6.50;4.30;;;;;;;-14.80;50.40;101053.06;4890818;29;20492;-80
2021/12/29 09:53:50;;;;;;;7.45;5.13;;;;;;;-15.03;50.99;101057.94;4922049;29;20087;-81
2021/12/29 09:56:16;;;;;;;14.68;6.63;;;;;;;-15.18;51.55;101075.13;4907041;29;20511;-80
2021/12/29 09:58:42;;;;;;;7.97;4.53;;;;;;;-15.10;52.01;101068.72;4891496;29;20043;-86
2021/12/29 10:01:09;;;;;;;10.02;5.50;;;;;;;-14.88;51.83;101069.78;4922214;29;20133;-81
2021/12/29 10:03:38;;;;;;;10.35;4.50;;;;;;;-14.76;51.37;101070.38;4922199;29;20039;-85
2021/12/29 10:06:06;;;;;;;10.88;4.95;;;;;;;-14.71;50.90;101063.78;4922485;29;20047;-87
2021/12/29 10:08:34;;;;;;;4.57;3.53;;;;;;;-14.52;50.73;101078.38;4932543;28;20050;-84
2021/12/29 10:11:03;;;;;;;9.88;3.95;;;;;;;-14.50;50.41;101066.50;4965584;28;20050;-84
2021/12/29 10:13:30;;;;;;;4.68;3.90;;;;;;;-14.60;50.07;101069.44;4960696;28;20056;-84
2021/12/29 10:16:10;;;;;;;7.88;4.85;;;;;;;-14.71;50.71;101068.91;4962075;28;20504;-85
2021/12/29 10:18:53;;;;;;;6.05;3.42;;;;;;;-14.64;50.78;101045.31;4956502;28;20053;-82
2021/12/29 10:21:22;;;;;;;5.90;4.18;;;;;;;-14.57;50.73;101067.91;4942269;28;20413;-84
2021/12/29 10:23:50;;;;;;;5.72;3.78;;;;;;;-14.40;50.38;101070.34;4952182;28;20065;-85
2021/12/29 10:26:21;;;;;;;6.07;3.17;;;;;;;-14.26;50.29;101075.34;4934724;28;20042;-82
2021/12/29 10:28:49;;;;;;;9.15;4.63;;;;;;;-14.28;49.80;101089.81;4964299;28;20058;-82
2021/12/29 10:31:26;;;;;;;8.80;4.10;;;;;;;-14.47;49.58;101090.63;4979933;28;20057;-83
2021/12/29 10:33:54;;;;;;;7.25;3.60;;;;;;;-14.63;49.84;101100.09;4964558;28;20461;-82
2021/12/29 10:36:24;;;;;;;12.38;5.32;;;;;;;-14.67;50.50;101096.47;4968975;28;20050;-82
2021/12/29 10:39:07;;;;;;;8.35;3.95;;;;;;;-14.75;50.26;101108.94;4963216;28;20042;-80
2021/12/29 10:41:45;;;;;;;10.65;5.30;;;;;;;-14.75;50.55;101113.19;4980056;28;20050;-81
2021/12/29 10:44:12;;;;;;;13.93;6.45;;;;;;;-14.76;50.68;101102.06;4980762;28;20054;-83
2021/12/29 10:46:38;;;;;;;8.25;5.20;;;;;;;-14.79;50.42;101111.28;4964805;28;20121;-84
2021/12/29 10:49:07;;;;;;;9.73;5.95;;;;;;;-14.81;50.49;101115.47;4951941;28;20049;-83
2021/12/29 10:51:35;;;;;;;14.07;8.25;;;;;;;-14.93;50.46;101113.16;4955967;28;20035;-82
2021/12/29 10:54:14;;;;;;;9.05;4.13;;;;;;;-15.05;50.68;101128.81;4991528;28;20042;-82
2021/12/29 10:56:43;;;;;;;10.80;6.30;;;;;;;-15.10;51.12;101122.56;4960309;28;20513;-81
2021/12/29 10:59:18;;;;;;;6.38;4.43;;;;;;;-15.14;50.73;101132.59;4954196;28;20096;-82
2021/12/29 11:01:45;;;;;;;12.35;6.03;;;;;;;-15.22;51.47;101140.78;4972651;28;20073;-81
2021/12/29 11:04:12;;;;;;;10.68;3.75;;;;;;;-15.54;51.20;101149.34;4982664;28;20054;-84
2021/12/29 11:06:40;;;;;;;8.15;4.68;;;;;;;-15.65;51.83;101142.78;4964291;28;20042;-78
2021/12/29 11:09:06;;;;;;;7.65;5.05;;;;;;;-15.10;64.24;101158.50;4964352;28;20046;-84
2021/12/29 11:11:34;;;;;;;5.22;3.80;;;;;;;-15.02;58.44;101153.75;4937543;28;20153;-83
2021/12/29 11:14:52;;;;;;;7.95;4.95;;;;;;;-15.41;54.12;101137.19;4928712;28;20050;-83
2021/12/29 11:17:25;;;;;;;8.50;3.88;;;;;;;-15.94;53.60;101165.16;4872327;29;20045;-82
2021/12/29 11:19:56;;;;;;;7.53;4.80;;;;;;;-16.16;53.97;101157.09;4951993;28;20507;-86
2021/12/29 11:22:25;;;;;;;10.00;5.60;;;;;;;-16.32;54.15;101169.81;4944291;28;20054;-81
2021/12/29 11:24:59;;;;;;;7.65;4.55;;;;;;;-16.47;54.06;101160.47;4995936;28;20056;-80
2021/12/29 11:27:26;;;;;;;8.75;4.53;;;;;;;-16.54;54.51;101160.94;4946876;28;20050;-81
2021/12/29 11:29:55;;;;;;;7.00;4.10;;;;;;;-16.73;54.78;101166.66;4962381;28;20046;-82
2021/12/29 11:32:34;;;;;;;5.22;4.68;;;;;;;-16.89;54.91;101160.56;4978468;28;20077;-81
2021/12/29 11:35:09;;;;;;;;;;;;;;;-16.92;55.16;101179.22;4963346;28;20053;-80
2021/12/29 11:37:37;;;;;;;4.75;3.58;;;;;;;-17.00;54.90;101178.72;4942566;28;19918;-81
2021/12/29 11:40:05;;;;;;;6.95;3.92;;;;;;;-17.03;55.17;101165.78;4911940;28;20041;-81
2021/12/29 11:42:31;;;;;;;9.02;3.95;;;;;;;-17.10;55.27;101166.19;4974754;28;20043;-81
2021/12/29 11:44:57;;;;;;;6.03;4.50;;;;;;;-17.09;55.09;101180.75;4943065;28;20043;-82
2021/12/29 11:47:23;;;;;;;8.07;4.82;;;;;;;-17.24;55.51;101177.28;4959112;28;20141;-82
2021/12/29 11:49:49;;;;;;;7.85;4.88;;;;;;;-17.29;55.45;101188.91;4926689;28;20544;-82